Time;durP1;ratioP1;P1;durP2;ratioP2;P2;SDS_P1;SDS_P2;PMS_P1;PMS_P2;Temp;Humidity;BMP_temperature;BMP_pressure;BME280_temperature;BME280_humidity;BME280_pressure;Samples;Min_cycle;Max_cycle;Signal;HPM_P1;HPM_P2
2024/01/01 00:00:26;;;;;;;298.77;267.27;;;7.20;1.00;;;;;;5084706;28;20486;-68
2024/01/01 00:02:53;;;;;;;291.97;260.17;;;7.20;1.00;;;;;;5088264;28;20473;-80
2024/01/01 00:05:20;;;;;;;294.30;262.37;;;7.20;1.00;;;;;;5084085;27;20471;-72
2024/01/01 00:07:50;;;;;;;294.50;262.40;;;7.10;1.00;;;;;;5078065;27;20581;-73
2024/01/01 00:10:18;;;;;;;272.97;244.20;;;7.10;1.00;;;;;;5084910;27;20485;-70
2024/01/01 00:12:45;;;;;;;269.97;240.67;;;7.20;1.00;;;;;;5089061;27;20465;-76
2024/01/01 00:15:12;;;;;;;266.80;238.00;;;7.20;1.00;;;;;;5091728;28;21215;-75
2024/01/01 00:17:39;;;;;;;240.97;213.33;;;7.30;1.00;;;;;;5089412;28;21934;-76
2024/01/01 00:20:07;;;;;;;237.47;211.70;;;7.30;1.00;;;;;;5087212;28;20455;-74
2024/01/01 00:22:35;;;;;;;236.60;210.57;;;7.20;1.00;;;;;;5088600;27;20508;-74
2024/01/01 00:25:04;;;;;;;286.57;255.60;;;7.20;1.00;;;;;;5086416;28;20459;-74
2024/01/01 00:27:33;;;;;;;337.10;300.17;;;7.10;1.00;;;;;;5086802;28;20558;-74
2024/01/01 00:30:00;;;;;;;319.17;283.97;;;7.10;1.00;;;;;;5086648;28;20474;-75
2024/01/01 00:32:26;;;;;;;328.77;292.47;;;7.10;1.00;;;;;;5088278;27;21181;-74
2024/01/01 00:34:53;;;;;;;408.27;348.30;;;7.00;1.00;;;;;;5085926;28;20455;-73
2024/01/01 00:37:20;;;;;;;399.33;345.73;;;7.00;1.00;;;;;;5089101;28;20481;-74
2024/01/01 00:39:47;;;;;;;404.30;356.20;;;7.00;1.00;;;;;;5089367;28;21013;-74
2024/01/01 00:42:16;;;;;;;422.30;365.40;;;6.90;1.00;;;;;;5087089;27;20498;-74
2024/01/01 00:44:44;;;;;;;431.03;378.50;;;6.90;1.00;;;;;;5090666;28;20451;-74
2024/01/01 00:47:11;;;;;;;453.73;388.20;;;6.90;1.00;;;;;;5091005;28;20619;-75
2024/01/01 00:49:38;;;;;;;425.47;375.03;;;6.80;1.00;;;;;;5091015;28;20474;-73
2024/01/01 00:52:05;;;;;;;328.93;292.93;;;6.80;1.00;;;;;;5092559;27;20554;-74
2024/01/01 00:54:32;;;;;;;341.83;304.17;;;6.70;1.00;;;;;;5092685;28;20451;-75
2024/01/01 00:57:00;;;;;;;340.40;293.10;;;6.60;1.00;;;;;;5090402;27;20566;-73
2024/01/01 00:59:28;;;;;;;292.77;259.00;;;6.60;1.00;;;;;;5089830;28;20472;-74
2024/01/01 01:01:55;;;;;;;274.53;242.80;;;6.60;1.00;;;;;;5089686;28;20524;-73
2024/01/01 01:04:22;;;;;;;205.40;182.80;;;6.50;1.00;;;;;;5088001;27;20616;-74
2024/01/01 01:06:49;;;;;;;245.87;216.97;;;6.60;1.00;;;;;;5090077;28;20465;-74
2024/01/01 01:09:16;;;;;;;263.50;227.37;;;6.60;1.00;;;;;;5087416;28;20459;-74
2024/01/01 01:11:43;;;;;;;236.07;201.93;;;6.60;1.00;;;;;;5088640;27;20972;-74
2024/01/01 01:14:09;;;;;;;254.27;220.70;;;6.60;1.00;;;;;;5089724;27;20483;-73
2024/01/01 01:16:38;;;;;;;203.30;167.97;;;6.50;1.00;;;;;;5087770;27;21048;-74
2024/01/01 01:19:05;;;;;;;166.60;142.40;;;6.60;1.00;;;;;;5088048;27;20667;-74
2024/01/01 01:21:31;;;;;;;161.33;135.70;;;6.50;1.00;;;;;;5090536;27;20494;-76
2024/01/01 01:23:59;;;;;;;153.83;128.53;;;6.50;1.00;;;;;;5090396;27;20465;-77
2024/01/01 01:26:26;;;;;;;149.47;123.23;;;6.60;1.00;;;;;;5088667;27;20469;-74
2024/01/01 01:28:52;;;;;;;159.17;129.17;;;6.60;1.00;;;;;;5090127;28;20504;-74
2024/01/01 01:31:19;;;;;;;138.63;116.40;;;6.60;1.00;;;;;;5088774;27;20540;-75
2024/01/01 01:33:48;;;;;;;131.40;109.13;;;6.60;1.00;;;;;;5091233;27;20455;-76
2024/01/01 01:36:15;;;;;;;149.97;119.50;;;6.60;1.00;;;;;;5090866;27;20571;-76
2024/01/01 01:38:42;;;;;;;137.33;121.17;;;6.70;1.00;;;;;;5091028;27;20478;-76
2024/01/01 01:41:15;;;;;;;153.37;122.30;;;6.70;1.00;;;;;;5091699;27;20605;-76
2024/01/01 01:43:42;;;;;;;135.37;112.83;;;6.70;1.00;;;;;;5089513;28;20526;-74
2024/01/01 01:46:09;;;;;;;122.27;100.60;;;6.70;1.00;;;;;;5089351;27;20481;-75
2024/01/01 01:48:36;;;;;;;112.10;94.00;;;6.50;1.00;;;;;;5088541;27;20546;-77
2024/01/01 01:51:05;;;;;;;100.97;89.53;;;6.50;1.00;;;;;;5090006;27;20549;-76
2024/01/01 01:53:32;;;;;;;110.10;93.00;;;6.60;1.00;;;;;;5078626;28;21680;-76
2024/01/01 01:56:03;;;;;;;104.05;86.35;;;6.50;1.00;;;;;;5088485;27;20554;-76
2024/01/01 01:58:31;;;;;;;103.40;90.40;;;6.60;1.00;;;;;;5092396;27;20235;-74
2024/01/01 02:00:59;;;;;;;92.30;77.17;;;6.50;1.00;;;;;;5089146;27;20554;-75
2024/01/01 02:03:26;;;;;;;93.73;79.70;;;6.40;1.00;;;;;;5089837;28;21201;-74
2024/01/01 02:05:54;;;;;;;91.27;76.80;;;6.50;1.00;;;;;;5088859;28;20500;-76
2024/01/01 02:08:23;;;;;;;99.27;81.97;;;6.50;1.00;;;;;;5069950;27;20458;-75
2024/01/01 02:10:50;;;;;;;83.72;70.53;;;6.50;1.00;;;;;;5084539;28;20973;-75
2024/01/01 02:13:24;;;;;;;88.40;70.20;;;6.50;1.00;;;;;;5071579;27;20239;-76
2024/01/01 02:15:51;;;;;;;83.97;69.20;;;6.50;1.00;;;;;;5065878;28;20992;-75
2024/01/01 02:18:18;;;;;;;79.83;63.40;;;6.40;1.00;;;;;;5068578;28;20542;-75
2024/01/01 02:20:45;;;;;;;89.88;65.53;;;6.40;1.00;;;;;;5086638;28;20551;-75
2024/01/01 02:23:16;;;;;;;85.00;64.80;;;6.30;1.00;;;;;;5091239;27;20234;-76
2024/01/01 02:25:43;;;;;;;81.57;64.37;;;6.30;1.00;;;;;;5089106;28;20251;-76
2024/01/01 02:28:10;;;;;;;94.67;75.40;;;6.40;1.00;;;;;;5091785;27;20479;-76
2024/01/01 02:30:38;;;;;;;78.77;62.67;;;6.30;1.00;;;;;;5090626;28;20563;-75
2024/01/01 02:33:08;;;;;;;73.53;58.83;;;6.30;1.00;;;;;;5089362;28;20566;-75
2024/01/01 02:35:36;;;;;;;74.60;59.07;;;6.30;1.00;;;;;;5088500;27;20512;-76
2024/01/01 02:38:04;;;;;;;73.20;57.67;;;6.30;1.00;;;;;;5090320;28;20466;-73
2024/01/01 02:40:33;;;;;;;70.97;54.63;;;6.30;1.00;;;;;;5093828;28;20475;-76
2024/01/01 02:43:01;;;;;;;65.07;51.15;;;6.30;1.00;;;;;;5088440;28;20477;-75
2024/01/01 02:45:28;;;;;;;80.38;62.10;;;6.30;1.00;;;;;;5089515;28;20236;-76
2024/01/01 02:47:55;;;;;;;90.93;63.90;;;6.20;1.00;;;;;;5090809;28;20241;-76
2024/01/01 02:50:22;;;;;;;93.60;66.53;;;6.20;1.00;;;;;;5089099;27;21148;-76
2024/01/01 02:52:49;;;;;;;89.63;68.57;;;6.20;1.00;;;;;;5091135;28;20555;-76
2024/01/01 02:55:16;;;;;;;77.47;58.57;;;6.10;1.00;;;;;;5089588;28;20469;-75
2024/01/01 02:57:45;;;;;;;71.00;54.78;;;6.10;1.00;;;;;;5093501;27;20540;-75
2024/01/01 03:00:14;;;;;;;72.13;51.33;;;6.00;1.00;;;;;;5089400;28;20790;-74
2024/01/01 03:02:41;;;;;;;78.55;54.03;;;6.00;1.00;;;;;;5090356;28;20238;-76
2024/01/01 03:05:09;;;;;;;65.50;50.83;;;6.00;1.00;;;;;;5091249;28;20773;-75
2024/01/01 03:07:36;;;;;;;66.43;47.15;;;6.00;1.00;;;;;;5091475;27;20494;-78
2024/01/01 03:10:04;;;;;;;67.95;49.25;;;6.00;1.00;;;;;;5091413;27;21084;-74
2024/01/01 03:12:32;;;;;;;64.90;48.27;;;5.90;1.00;;;;;;5089908;28;20245;-76
2024/01/01 03:15:02;;;;;;;52.58;41.17;;;5.90;1.00;;;;;;5090234;28;21138;-75
2024/01/01 03:17:29;;;;;;;43.38;34.67;;;5.80;1.00;;;;;;5087836;27;20775;-76
2024/01/01 03:19:56;;;;;;;40.05;33.03;;;5.90;1.00;;;;;;5093542;28;20296;-74
2024/01/01 03:22:23;;;;;;;31.30;24.80;;;5.90;1.00;;;;;;5091462;27;20291;-77
2024/01/01 03:24:50;;;;;;;30.33;26.03;;;5.80;1.00;;;;;;5090556;28;20454;-73
2024/01/01 03:27:17;;;;;;;37.88;29.77;;;5.80;1.00;;;;;;5089014;28;20562;-75
2024/01/01 03:29:44;;;;;;;36.13;28.77;;;5.70;1.00;;;;;;5079196;28;20237;-74
2024/01/01 03:32:12;;;;;;;34.60;28.47;;;5.70;1.00;;;;;;5066861;28;20243;-75
2024/01/01 03:34:41;;;;;;;28.67;22.15;;;5.70;1.00;;;;;;5083172;28;20542;-74
2024/01/01 03:37:07;;;;;;;30.55;23.42;;;5.70;1.00;;;;;;5073053;28;20738;-75
2024/01/01 03:39:34;;;;;;;35.28;28.48;;;5.70;1.00;;;;;;5068339;28;20291;-75
2024/01/01 03:42:01;;;;;;;43.60;33.73;;;5.70;1.00;;;;;;5079834;27;20229;-75
2024/01/01 03:44:28;;;;;;;44.50;29.73;;;5.70;1.00;;;;;;5088478;27;20595;-74
2024/01/01 03:46:55;;;;;;;33.47;25.30;;;5.70;1.00;;;;;;5091284;28;20266;-75
2024/01/01 03:49:24;;;;;;;28.63;22.90;;;5.80;1.00;;;;;;5087667;27;20450;-75
2024/01/01 03:51:51;;;;;;;28.37;18.17;;;5.80;1.00;;;;;;5092035;27;20595;-75
2024/01/01 03:54:18;;;;;;;28.95;21.73;;;5.90;1.00;;;;;;5094623;27;20540;-76
2024/01/01 03:56:45;;;;;;;25.30;20.15;;;5.90;1.00;;;;;;5092632;27;20303;-75
2024/01/01 03:59:11;;;;;;;26.23;18.25;;;5.90;1.00;;;;;;5090071;28;20805;-75
2024/01/01 04:01:38;;;;;;;22.87;17.80;;;5.90;1.00;;;;;;5090038;28;20739;-74
2024/01/01 04:04:06;;;;;;;19.75;17.65;;;6.00;1.00;;;;;;5086525;28;20468;-73
2024/01/01 04:06:35;;;;;;;21.38;16.27;;;6.00;1.00;;;;;;5086086;27;20268;-74
2024/01/01 04:09:02;;;;;;;22.53;15.50;;;6.00;1.00;;;;;;5087279;28;20326;-73
2024/01/01 04:11:29;;;;;;;21.27;15.10;;;5.90;1.00;;;;;;5094127;27;20461;-73
2024/01/01 04:13:56;;;;;;;18.77;13.73;;;5.90;1.00;;;;;;5091052;27;20237;-74
2024/01/01 04:16:23;;;;;;;20.47;14.40;;;5.90;1.00;;;;;;5089584;28;20539;-73
2024/01/01 04:18:51;;;;;;;20.60;16.20;;;5.80;1.00;;;;;;5091162;28;20534;-74
2024/01/01 04:21:18;;;;;;;17.60;13.60;;;5.80;1.00;;;;;;5092778;28;20535;-75
2024/01/01 04:23:46;;;;;;;16.87;13.70;;;5.80;1.00;;;;;;5092245;28;20508;-74
2024/01/01 04:26:14;;;;;;;20.15;15.75;;;5.80;1.00;;;;;;5091897;28;20542;-74
2024/01/01 04:28:42;;;;;;;17.23;14.60;;;5.70;1.00;;;;;;5089247;27;20239;-74
2024/01/01 04:31:09;;;;;;;22.50;17.10;;;5.70;1.00;;;;;;5089302;27;20984;-74
2024/01/01 04:33:36;;;;;;;18.87;16.63;;;5.80;1.00;;;;;;5085918;28;20568;-74
2024/01/01 04:36:03;;;;;;;23.47;17.17;;;5.80;1.00;;;;;;5072842;28;20548;-74
2024/01/01 04:38:30;;;;;;;18.40;15.97;;;5.90;1.00;;;;;;5088085;27;20449;-75
2024/01/01 04:40:58;;;;;;;19.25;14.80;;;5.90;1.00;;;;;;5087220;27;20529;-75
2024/01/01 04:43:26;;;;;;;18.88;16.35;;;6.00;1.00;;;;;;5070867;28;20231;-76
2024/01/01 04:45:53;;;;;;;21.90;15.70;;;6.10;1.00;;;;;;5090944;27;20235;-74
2024/01/01 04:48:22;;;;;;;19.20;13.87;;;6.10;1.00;;;;;;5071812;28;20246;-73
2024/01/01 04:50:48;;;;;;;20.08;15.45;;;6.10;1.00;;;;;;5085965;27;20455;-73
2024/01/01 04:53:15;;;;;;;19.10;14.10;;;6.10;1.00;;;;;;5089634;28;20331;-69
2024/01/01 04:55:42;;;;;;;20.73;13.83;;;6.20;1.00;;;;;;5088864;28;20599;-69
2024/01/01 04:58:10;;;;;;;15.63;12.83;;;6.20;1.00;;;;;;5088802;27;21027;-69
2024/01/01 05:00:37;;;;;;;20.77;15.63;;;6.20;1.00;;;;;;5090300;27;20457;-69
2024/01/01 05:03:05;;;;;;;22.33;15.15;;;6.30;1.00;;;;;;5088328;27;21370;-70
2024/01/01 05:05:32;;;;;;;21.60;16.00;;;6.30;1.00;;;;;;5083700;27;20312;-70
2024/01/01 05:07:59;;;;;;;17.70;14.77;;;6.30;1.00;;;;;;5090592;27;20461;-69
2024/01/01 05:10:26;;;;;;;19.50;14.60;;;6.40;1.00;;;;;;5086063;28;20493;-69
2024/01/01 05:12:53;;;;;;;20.65;15.30;;;6.40;1.00;;;;;;5075786;27;20476;-71
2024/01/01 05:15:21;;;;;;;19.13;13.48;;;6.40;1.00;;;;;;5079815;27;21016;-68
2024/01/01 05:17:48;;;;;;;14.63;13.10;;;6.40;1.00;;;;;;5082252;27;20258;-69
2024/01/01 05:20:15;;;;;;;18.97;13.50;;;6.50;1.00;;;;;;5088991;28;20238;-69
2024/01/01 05:22:42;;;;;;;16.80;12.70;;;6.60;1.00;;;;;;5088635;28;20507;-73
2024/01/01 05:25:09;;;;;;;15.68;13.38;;;6.60;1.00;;;;;;5086995;27;20457;-72
2024/01/01 05:27:36;;;;;;;18.00;13.13;;;6.60;1.00;;;;;;5088123;27;20273;-69
2024/01/01 05:30:04;;;;;;;16.37;12.23;;;6.50;1.00;;;;;;5090047;27;21335;-70
2024/01/01 05:32:32;;;;;;;15.30;12.20;;;6.60;1.00;;;;;;5089920;27;20576;-69
2024/01/01 05:35:08;;;;;;;18.30;13.00;;;6.60;1.00;;;;;;5087265;27;20966;-68
2024/01/01 05:37:35;;;;;;;19.73;14.70;;;6.60;1.00;;;;;;5077903;27;20492;-70
2024/01/01 05:40:02;;;;;;;28.17;19.27;;;6.70;1.00;;;;;;5067187;28;20455;-72
2024/01/01 05:42:31;;;;;;;30.73;23.30;;;6.80;1.00;;;;;;5079552;28;20467;-72
2024/01/01 05:44:58;;;;;;;32.08;23.48;;;6.70;1.00;;;;;;5079806;27;20239;-69
2024/01/01 05:47:25;;;;;;;32.87;25.90;;;6.70;1.00;;;;;;5071531;27;21057;-70
2024/01/01 05:49:53;;;;;;;33.33;23.00;;;6.70;1.00;;;;;;5086207;27;20467;-69
2024/01/01 05:52:21;;;;;;;28.30;21.20;;;6.70;1.00;;;;;;5083402;27;21073;-69
2024/01/01 05:54:48;;;;;;;25.47;22.03;;;6.70;1.00;;;;;;5073262;28;20499;-69
2024/01/01 05:57:15;;;;;;;22.70;17.10;;;6.80;1.00;;;;;;5066222;27;20546;-70
2024/01/01 05:59:42;;;;;;;18.80;16.80;;;6.80;1.00;;;;;;5069336;27;20546;-73
2024/01/01 06:02:09;;;;;;;16.50;12.90;;;6.80;1.00;;;;;;5068505;27;20473;-75
2024/01/01 06:04:36;;;;;;;19.10;14.53;;;6.90;1.00;;;;;;5068332;27;20552;-73
2024/01/01 06:07:04;;;;;;;18.90;14.13;;;7.00;1.00;;;;;;5085127;27;20497;-75
2024/01/01 06:09:31;;;;;;;15.40;11.60;;;6.90;1.00;;;;;;5078444;27;20428;-75
2024/01/01 06:11:58;;;;;;;16.73;12.67;;;6.90;1.00;;;;;;5071236;28;20464;-75
2024/01/01 06:14:25;;;;;;;18.73;12.87;;;6.90;1.00;;;;;;5084114;27;20454;-75
2024/01/01 06:16:52;;;;;;;14.07;11.03;;;6.90;1.00;;;;;;5075714;27;20535;-75
2024/01/01 06:19:19;;;;;;;13.50;11.40;;;6.80;1.00;;;;;;5085941;28;20453;-76
2024/01/01 06:21:47;;;;;;;13.80;10.90;;;6.70;1.00;;;;;;5089588;27;20501;-74
2024/01/01 06:24:16;;;;;;;12.70;11.33;;;6.60;1.00;;;;;;5085769;27;20461;-75
2024/01/01 06:26:43;;;;;;;13.10;10.63;;;6.50;1.00;;;;;;5086916;28;20426;-75
2024/01/01 06:29:10;;;;;;;19.60;12.80;;;6.40;1.00;;;;;;5086232;28;20322;-75
2024/01/01 06:31:37;;;;;;;14.43;11.23;;;6.40;1.00;;;;;;5087865;27;20466;-75
2024/01/01 06:34:04;;;;;;;17.20;11.45;;;6.20;1.00;;;;;;5078591;28;20333;-75
2024/01/01 06:36:30;;;;;;;14.57;11.32;;;6.20;1.00;;;;;;5078772;27;20337;-77
2024/01/01 06:38:57;;;;;;;15.67;13.17;;;6.20;1.00;;;;;;5067275;28;20245;-75
2024/01/01 06:41:26;;;;;;;14.73;11.13;;;6.20;1.00;;;;;;5088829;27;20572;-76
2024/01/01 06:43:52;;;;;;;12.00;10.63;;;6.20;1.00;;;;;;5072205;27;20252;-73
2024/01/01 06:46:19;;;;;;;14.80;12.00;;;6.20;1.00;;;;;;5074574;28;20518;-74
2024/01/01 06:48:46;;;;;;;15.13;12.73;;;6.20;1.00;;;;;;5076868;28;20340;-76
2024/01/01 06:51:14;;;;;;;15.60;12.13;;;6.20;1.00;;;;;;5086003;27;20258;-76
2024/01/01 06:53:40;;;;;;;16.50;12.00;;;6.30;1.00;;;;;;5089207;27;20522;-76
2024/01/01 06:56:08;;;;;;;13.15;11.38;;;6.30;1.00;;;;;;5079676;27;20238;-74
2024/01/01 06:58:36;;;;;;;16.20;10.55;;;6.20;1.00;;;;;;5089095;28;20319;-75
2024/01/01 07:01:05;;;;;;;16.35;11.18;;;6.20;1.00;;;;;;5088983;28;20272;-76
2024/01/01 07:03:32;;;;;;;13.70;10.68;;;6.20;1.00;;;;;;5090140;28;20248;-75
2024/01/01 07:05:59;;;;;;;14.38;9.93;;;6.10;1.00;;;;;;5086092;27;20235;-75
2024/01/01 07:08:26;;;;;;;14.15;10.50;;;6.10;1.00;;;;;;5087961;28;20411;-75
2024/01/01 07:10:53;;;;;;;13.13;10.43;;;6.10;1.00;;;;;;5087734;28;20239;-75
2024/01/01 07:13:24;;;;;;;13.73;11.50;;;6.00;1.00;;;;;;5087215;27;20302;-74
2024/01/01 07:15:53;;;;;;;14.48;10.32;;;6.10;1.00;;;;;;5085990;28;20277;-73
2024/01/01 07:18:20;;;;;;;13.30;9.43;;;6.00;1.00;;;;;;5084001;28;20258;-73
2024/01/01 07:20:47;;;;;;;12.20;9.32;;;5.90;1.00;;;;;;5086562;28;20559;-72
2024/01/01 07:23:14;;;;;;;15.05;9.70;;;5.80;1.00;;;;;;5079450;27;20273;-73
2024/01/01 07:25:41;;;;;;;11.00;9.48;;;5.90;1.00;;;;;;5086795;27;20246;-73
2024/01/01 07:28:08;;;;;;;15.38;10.07;;;5.90;1.00;;;;;;5085331;27;20543;-73
2024/01/01 07:30:35;;;;;;;15.25;11.02;;;6.00;1.00;;;;;;5085449;27;21119;-73
2024/01/01 07:33:04;;;;;;;13.95;10.32;;;5.90;1.00;;;;;;5077862;28;20306;-73
2024/01/01 07:35:31;;;;;;;17.70;10.45;;;5.90;1.00;;;;;;5087814;27;20909;-73
2024/01/01 07:37:58;;;;;;;11.43;9.13;;;5.90;1.00;;;;;;5071256;27;20295;-73
2024/01/01 07:40:25;;;;;;;13.40;9.40;;;5.90;1.00;;;;;;5069461;27;20497;-73
2024/01/01 07:42:51;;;;;;;13.73;9.63;;;5.90;1.00;;;;;;5087603;28;20268;-74
2024/01/01 07:45:18;;;;;;;11.80;9.18;;;5.90;1.00;;;;;;5087183;28;20311;-77
2024/01/01 07:47:45;;;;;;;10.88;9.43;;;5.90;1.00;;;;;;5086561;28;20259;-73
2024/01/01 07:50:14;;;;;;;12.60;9.00;;;5.80;1.00;;;;;;5089684;27;22081;-74
2024/01/01 07:52:41;;;;;;;12.00;9.32;;;5.80;1.00;;;;;;5087677;27;20325;-73
2024/01/01 07:55:10;;;;;;;11.80;9.05;;;5.80;1.00;;;;;;5087824;27;20430;-72
2024/01/01 07:57:38;;;;;;;16.87;15.13;;;5.90;1.00;;;;;;5085297;27;20264;-72
2024/01/01 08:00:09;;;;;;;11.75;8.88;;;5.90;1.00;;;;;;5087396;27;21409;-73
2024/01/01 08:02:36;;;;;;;11.70;8.80;;;5.90;1.00;;;;;;5069186;28;20325;-73
2024/01/01 08:05:03;;;;;;;10.45;8.82;;;5.90;1.00;;;;;;5083661;27;20298;-73
2024/01/01 08:07:32;;;;;;;13.27;8.98;;;6.00;1.00;;;;;;5083225;27;21106;-73
2024/01/01 08:09:58;;;;;;;9.95;8.15;;;6.10;1.00;;;;;;5085248;28;20303;-74
2024/01/01 08:12:26;;;;;;;9.32;8.43;;;6.00;1.00;;;;;;5086941;28;20264;-73
2024/01/01 08:14:53;;;;;;;12.82;9.10;;;6.10;1.00;;;;;;5086501;28;20233;-73
2024/01/01 08:17:19;;;;;;;11.25;8.50;;;6.10;1.00;;;;;;5086356;28;20269;-73
2024/01/01 08:19:46;;;;;;;11.50;8.70;;;6.20;1.00;;;;;;5073784;28;20301;-73
2024/01/01 08:22:13;;;;;;;12.35;8.10;;;6.30;1.00;;;;;;5066694;28;20320;-72
2024/01/01 08:24:41;;;;;;;13.27;8.80;;;6.60;1.00;;;;;;5065753;27;21144;-73
2024/01/01 08:27:08;;;;;;;12.30;7.90;;;7.30;1.00;;;;;;5064799;28;21198;-72
2024/01/01 08:29:35;;;;;;;9.47;7.97;;;8.10;1.00;;;;;;5070227;27;20482;-73
2024/01/01 08:32:02;;;;;;;11.50;7.90;;;8.80;1.00;;;;;;5071407;27;20582;-74
2024/01/01 08:34:31;;;;;;;8.60;7.07;;;9.00;1.00;;;;;;5064161;28;20457;-79
2024/01/01 08:36:59;;;;;;;12.07;7.40;;;8.80;1.00;;;;;;5065934;28;20540;-73
2024/01/01 08:39:26;;;;;;;8.93;6.50;;;8.60;1.00;;;;;;5067000;27;20470;-73
2024/01/01 08:41:54;;;;;;;11.80;6.83;;;8.60;1.00;;;;;;5087363;27;20540;-73
2024/01/01 08:44:21;;;;;;;7.73;6.83;;;8.60;1.00;;;;;;5086606;28;21156;-74
2024/01/01 08:46:48;;;;;;;9.20;6.20;;;8.70;1.00;;;;;;5086825;28;21013;-72
2024/01/01 08:49:15;;;;;;;8.20;6.80;;;8.50;1.00;;;;;;5067300;27;20510;-73
2024/01/01 08:51:42;;;;;;;7.37;6.57;;;8.60;1.00;;;;;;5084902;28;20546;-73
2024/01/01 08:54:09;;;;;;;8.50;6.43;;;8.40;1.00;;;;;;5083995;28;20568;-73
2024/01/01 08:56:36;;;;;;;7.80;5.70;;;8.50;1.00;;;;;;5086278;27;20515;-73
2024/01/01 08:59:04;;;;;;;7.57;5.53;;;8.40;1.00;;;;;;5072109;27;20464;-73
2024/01/01 09:01:31;;;;;;;6.47;5.23;;;8.50;1.00;;;;;;5071891;28;20479;-73
2024/01/01 09:04:00;;;;;;;8.27;5.50;;;8.60;1.00;;;;;;5088267;27;20492;-73
2024/01/01 09:06:27;;;;;;;10.23;6.40;;;8.60;1.00;;;;;;5089357;27;20612;-74
2024/01/01 09:08:54;;;;;;;6.57;5.87;;;8.70;1.00;;;;;;5088257;27;20481;-73
2024/01/01 09:11:21;;;;;;;6.27;5.63;;;8.80;1.00;;;;;;5091173;27;20581;-73
2024/01/01 09:13:48;;;;;;;6.10;5.27;;;9.00;1.00;;;;;;5091485;28;20518;-74
2024/01/01 09:16:16;;;;;;;7.10;5.27;;;9.40;1.00;;;;;;5085444;27;20478;-74
2024/01/01 09:18:44;;;;;;;7.77;5.00;;;9.70;1.00;;;;;;5085597;28;20520;-74
2024/01/01 09:21:15;;;;;;;6.53;5.07;;;10.00;1.00;;;;;;5089770;27;21293;-75
2024/01/01 09:23:41;;;;;;;6.43;5.20;;;10.00;1.00;;;;;;5089893;27;20482;-74
2024/01/01 09:26:08;;;;;;;5.60;4.40;;;9.70;1.00;;;;;;5088737;27;20479;-74
2024/01/01 09:28:36;;;;;;;6.60;5.80;;;9.60;1.00;;;;;;5086778;27;20550;-76
2024/01/01 09:31:04;;;;;;;8.77;4.13;;;9.40;1.00;;;;;;5089659;27;20558;-74
2024/01/01 09:33:33;;;;;;;5.30;4.47;;;9.30;1.00;;;;;;5088206;28;20466;-74
2024/01/01 09:36:00;;;;;;;5.80;4.23;;;9.10;1.00;;;;;;5088297;27;20455;-74
2024/01/01 09:38:27;;;;;;;5.63;4.80;;;9.00;1.00;;;;;;5087778;28;20499;-75
2024/01/01 09:40:55;;;;;;;6.63;5.20;;;9.00;1.00;;;;;;5086691;27;20451;-73
2024/01/01 09:43:22;;;;;;;6.13;4.27;;;9.00;1.00;;;;;;5087264;28;20610;-73
2024/01/01 09:45:49;;;;;;;11.73;4.90;;;8.80;1.00;;;;;;5088119;28;20668;-73
2024/01/01 09:48:16;;;;;;;8.43;4.50;;;8.70;1.00;;;;;;5088129;27;21009;-73
2024/01/01 09:50:48;;;;;;;4.47;3.93;;;8.70;1.00;;;;;;5088233;27;20460;-73
2024/01/01 09:53:17;;;;;;;6.20;4.40;;;8.60;1.00;;;;;;5086843;27;20492;-76
2024/01/01 09:55:51;;;;;;;6.37;4.30;;;8.60;1.00;;;;;;5081188;27;20462;-73
2024/01/01 09:58:18;;;;;;;4.93;4.43;;;8.60;1.00;;;;;;5075155;27;20475;-73
2024/01/01 10:00:48;;;;;;;6.10;5.20;;;8.50;1.00;;;;;;5075105;28;20594;-73
2024/01/01 10:03:15;;;;;;;8.13;4.93;;;8.50;1.00;;;;;;5082305;27;20524;-73
2024/01/01 10:05:48;;;;;;;5.50;4.93;;;8.50;1.00;;;;;;5086628;27;20467;-74
2024/01/01 10:08:16;;;;;;;10.43;5.23;;;8.50;1.00;;;;;;5087821;27;20552;-74
2024/01/01 10:10:44;;;;;;;8.17;4.60;;;8.50;1.00;;;;;;5071426;28;20547;-73
2024/01/01 10:13:12;;;;;;;9.17;5.00;;;8.50;1.00;;;;;;5086029;28;20548;-73
2024/01/01 10:15:41;;;;;;;7.10;4.90;;;8.30;1.00;;;;;;5088218;28;20450;-73
2024/01/01 10:18:10;;;;;;;6.57;5.00;;;8.10;1.00;;;;;;5087074;28;20469;-73
2024/01/01 10:20:37;;;;;;;8.47;5.03;;;7.90;1.00;;;;;;5087169;28;20544;-73
2024/01/01 10:23:26;;;;;;;8.00;4.93;;;7.80;1.00;;;;;;5089897;28;21605;-73
2024/01/01 10:26:03;;;;;;;7.13;4.20;;;7.70;1.00;;;;;;5085637;27;20538;-73
2024/01/01 10:28:31;;;;;;;5.13;4.57;;;7.70;1.00;;;;;;5070439;28;20559;-73
2024/01/01 10:30:59;;;;;;;6.87;4.63;;;7.70;1.00;;;;;;5086660;27;20462;-73
2024/01/01 10:33:28;;;;;;;7.47;4.53;;;7.70;1.00;;;;;;5085481;28;20472;-73
2024/01/01 10:35:55;;;;;;;6.10;4.70;;;7.60;1.00;;;;;;5083447;27;20468;-72
2024/01/01 10:38:25;;;;;;;6.83;4.67;;;7.60;1.00;;;;;;5082129;27;20464;-77
2024/01/01 10:40:55;;;;;;;8.27;5.33;;;7.60;1.00;;;;;;5079215;28;20540;-74
2024/01/01 10:43:25;;;;;;;7.13;5.00;;;7.50;1.00;;;;;;5086311;28;20836;-71
2024/01/01 10:45:56;;;;;;;7.03;5.13;;;7.50;1.00;;;;;;5086094;28;20545;-72
2024/01/01 10:48:23;;;;;;;5.83;4.63;;;7.40;1.00;;;;;;5084638;28;21321;-69
2024/01/01 10:51:00;;;;;;;7.67;5.30;;;7.40;1.00;;;;;;5086953;28;20513;-71
2024/01/01 10:53:48;;;;;;;7.30;5.20;;;7.40;1.00;;;;;;5085558;28;20449;-72
2024/01/01 10:56:25;;;;;;;10.00;5.23;;;7.40;1.00;;;;;;5085787;28;20463;-68
2024/01/01 10:59:03;;;;;;;6.17;5.07;;;7.40;1.00;;;;;;5086813;28;21232;-72
2024/01/01 11:01:30;;;;;;;7.10;4.87;;;7.30;1.00;;;;;;5076674;28;20450;-71
2024/01/01 11:03:57;;;;;;;5.93;4.40;;;7.30;1.00;;;;;;5062892;28;20475;-73
2024/01/01 11:06:29;;;;;;;8.83;6.07;;;7.30;1.00;;;;;;5085118;28;20904;-69
2024/01/01 11:08:59;;;;;;;8.70;5.37;;;7.30;1.00;;;;;;5087913;27;20467;-70
2024/01/01 11:11:30;;;;;;;6.77;4.83;;;7.30;1.00;;;;;;5070903;28;20981;-69
2024/01/01 11:13:58;;;;;;;8.33;4.83;;;7.40;1.00;;;;;;5087064;28;20993;-68
2024/01/01 11:16:26;;;;;;;7.47;5.23;;;7.40;1.00;;;;;;5081948;28;20648;-69
2024/01/01 11:18:53;;;;;;;6.63;5.37;;;7.50;1.00;;;;;;5085699;28;20475;-69
2024/01/01 11:21:31;;;;;;;8.00;5.90;;;7.60;1.00;;;;;;5067567;28;20518;-70
2024/01/01 11:24:01;;;;;;;7.53;5.43;;;7.70;1.00;;;;;;5066899;28;21255;-71
2024/01/01 11:26:31;;;;;;;6.40;5.20;;;7.80;1.00;;;;;;5066947;27;20459;-70
2024/01/01 11:29:00;;;;;;;7.10;4.67;;;7.80;1.00;;;;;;5076174;27;20909;-69
2024/01/01 11:31:28;;;;;;;5.57;4.27;;;7.80;1.00;;;;;;5079843;28;20442;-69
2024/01/01 11:34:03;;;;;;;7.40;5.17;;;7.90;1.00;;;;;;5091412;28;20477;-69
2024/01/01 11:36:30;;;;;;;10.63;5.57;;;8.00;1.00;;;;;;5083788;28;20505;-70
2024/01/01 11:38:59;;;;;;;6.07;4.80;;;8.10;1.00;;;;;;5088341;27;20604;-68
2024/01/01 11:41:27;;;;;;;8.63;5.33;;;8.20;1.00;;;;;;5087737;27;20446;-72
2024/01/01 11:43:54;;;;;;;5.33;4.13;;;8.30;1.00;;;;;;5086942;28;20902;-70
2024/01/01 11:46:25;;;;;;;5.83;4.30;;;8.20;1.00;;;;;;5087853;28;20596;-68
2024/01/01 11:48:56;;;;;;;6.37;4.30;;;8.20;1.00;;;;;;5087796;28;20474;-70
2024/01/01 11:51:24;;;;;;;6.90;4.80;;;8.20;1.00;;;;;;5085526;27;20589;-72
2024/01/01 11:54:09;;;;;;;7.57;4.70;;;8.20;1.00;;;;;;5087340;28;20458;-73
2024/01/01 11:56:37;;;;;;;8.33;4.70;;;8.40;1.00;;;;;;5085399;27;21029;-73
2024/01/01 11:59:06;;;;;;;6.67;4.60;;;8.50;1.00;;;;;;5087286;27;20470;-72
2024/01/01 12:01:33;;;;;;;8.10;5.00;;;8.60;1.00;;;;;;5087816;27;20458;-72
2024/01/01 12:04:03;;;;;;;7.83;4.83;;;8.60;1.00;;;;;;5088392;28;20578;-72
2024/01/01 12:06:30;;;;;;;8.47;4.70;;;8.50;1.00;;;;;;5086492;28;20462;-73
2024/01/01 12:09:11;;;;;;;8.63;4.17;;;8.60;1.00;;;;;;5087117;28;20462;-71
2024/01/01 12:11:38;;;;;;;6.37;4.40;;;8.60;1.00;;;;;;5084759;27;20439;-72
2024/01/01 12:14:06;;;;;;;5.77;4.30;;;8.70;1.00;;;;;;5086298;27;20455;-72
2024/01/01 12:16:33;;;;;;;5.90;5.00;;;8.70;1.00;;;;;;5086883;27;20546;-73
2024/01/01 12:19:02;;;;;;;7.23;4.60;;;8.80;1.00;;;;;;5086093;28;20492;-75
2024/01/01 12:21:39;;;;;;;6.10;3.77;;;9.00;1.00;;;;;;5085054;27;20461;-73
2024/01/01 12:24:07;;;;;;;7.90;4.27;;;9.00;1.00;;;;;;5086293;28;20535;-75
2024/01/01 12:26:37;;;;;;;6.73;3.77;;;8.90;1.00;;;;;;5087514;28;20410;-72
2024/01/01 12:29:16;;;;;;;5.60;4.13;;;9.00;1.00;;;;;;5083977;27;20676;-72
2024/01/01 12:31:44;;;;;;;8.27;5.00;;;9.10;1.00;;;;;;5066810;28;20423;-73
2024/01/01 12:34:15;;;;;;;5.70;3.50;;;9.20;1.00;;;;;;5069937;28;20424;-73
2024/01/01 12:36:43;;;;;;;8.00;5.00;;;9.30;1.00;;;;;;5071172;28;20525;-73
2024/01/01 12:39:11;;;;;;;6.83;3.83;;;9.40;1.00;;;;;;5068610;28;21282;-73
2024/01/01 12:41:39;;;;;;;5.57;4.00;;;9.40;1.00;;;;;;5069292;27;20546;-75
2024/01/01 12:44:06;;;;;;;5.93;4.17;;;9.50;1.00;;;;;;5067954;27;20546;-73
2024/01/01 12:46:33;;;;;;;9.40;4.63;;;9.40;1.00;;;;;;5066542;27;20493;-72
2024/01/01 12:49:00;;;;;;;4.77;3.47;;;9.60;1.00;;;;;;5069203;28;20507;-72
2024/01/01 12:51:28;;;;;;;6.83;3.57;;;9.70;1.00;;;;;;5071086;28;20561;-73
2024/01/01 12:53:57;;;;;;;7.43;4.20;;;9.70;1.00;;;;;;5092100;28;20466;-74